Terminal Aerodrome Forecast
Issued by NWS

Home | Current Version | Previous Version | Text Only | Print | Product List | Glossary On
Versions: 1 2 3 4 5 6 7 8 9 10 11 12 13 14 15 16
000
FTUS45 KRIW 262300
TAFCPR
TAF
KCPR 262323Z 2700/2724 28011KT P6SM BKN070
     FM270200 26009KT P6SM FEW110
     FM270700 24012KT P6SM SKC
     FM271900 28013G20KT P6SM SKC=

USA.gov is the U.S. government's official web portal to all federal, state and local government web resources and services.